createdAt,value
2018-06-27T00:00:09.212Z,102073.95
2018-06-27T00:03:16.197Z,102076.38
2018-06-27T00:06:22.328Z,102087.29
2018-06-27T00:09:27.217Z,102085.10
2018-06-27T00:12:32.638Z,102084.23
2018-06-27T00:15:39.005Z,102079.76
2018-06-27T00:18:45.882Z,102073.09
2018-06-27T00:21:50.719Z,102067.30
2018-06-27T00:24:55.580Z,102067.05
2018-06-27T00:28:01.488Z,102072.41
2018-06-27T00:31:07.497Z,102074.16
2018-06-27T00:34:12.614Z,102075.58
2018-06-27T00:37:18.297Z,102071.88
2018-06-27T00:40:24.741Z,102076.49
2018-06-27T00:43:30.254Z,102074.50
2018-06-27T00:46:37.465Z,102073.73
2018-06-27T00:49:43.166Z,102084.21
2018-06-27T00:52:48.601Z,102079.67
2018-06-27T00:55:54.172Z,102080.19
2018-06-27T00:59:25.341Z,102074.39
2018-06-27T01:03:10.671Z,102072.42
2018-06-27T01:06:25.964Z,102068.16
2018-06-27T01:09:31.693Z,102067.08
2018-06-27T01:12:37.345Z,102067.24
2018-06-27T01:15:43.189Z,102069.12
2018-06-27T01:18:48.933Z,102073.00
2018-06-27T01:21:55.554Z,102071.52
2018-06-27T01:25:00.821Z,102076.78
2018-06-27T01:28:06.564Z,102078.14
2018-06-27T01:31:12.173Z,102078.66
2018-06-27T01:34:17.860Z,102075.82
2018-06-27T01:37:22.961Z,102079.02
2018-06-27T01:40:29.272Z,102077.41
2018-06-27T01:43:35.165Z,102085.67
2018-06-27T01:46:40.259Z,102083.16
2018-06-27T01:49:46.151Z,102081.05
2018-06-27T01:52:52.605Z,102080.73
2018-06-27T01:55:57.716Z,102080.86
2018-06-27T01:59:02.780Z,102075.38
2018-06-27T02:02:08.176Z,102077.73
2018-06-27T02:05:14.534Z,102087.66
2018-06-27T02:08:20.040Z,102087.34
2018-06-27T02:11:24.839Z,102091.66
2018-06-27T02:14:30.044Z,102080.17
2018-06-27T02:17:35.499Z,102080.63
2018-06-27T02:20:41.225Z,102085.37
2018-06-27T02:23:46.422Z,102092.27
2018-06-27T02:26:51.813Z,102088.40
2018-06-27T02:29:57.705Z,102093.17
2018-06-27T02:33:04.137Z,102083.23
2018-06-27T02:36:11.091Z,102079.75
2018-06-27T02:39:17.126Z,102089.98
2018-06-27T02:42:22.538Z,102087.91
2018-06-27T02:45:27.609Z,102098.56
2018-06-27T02:48:34.321Z,102101.70
2018-06-27T02:51:40.426Z,102093.02
2018-06-27T02:54:45.833Z,102099.41
2018-06-27T02:57:52.056Z,102090.82
2018-06-27T03:00:58.407Z,102092.44
2018-06-27T03:04:04.706Z,102097.09
2018-06-27T03:07:10.137Z,102096.63
2018-06-27T03:10:17.104Z,102105.22
2018-06-27T03:13:22.719Z,102100.06
2018-06-27T03:16:27.975Z,102103.87
2018-06-27T03:19:33.699Z,102096.57
2018-06-27T03:22:38.684Z,102097.77
2018-06-27T03:25:44.061Z,102103.77
2018-06-27T03:28:51.501Z,102101.06
2018-06-27T03:31:57.155Z,102108.36
2018-06-27T03:35:03.484Z,102117.33
2018-06-27T03:38:09.304Z,102118.46
2018-06-27T03:41:15.049Z,102124.02
2018-06-27T03:44:20.126Z,102110.66
2018-06-27T03:47:26.320Z,102116.98
2018-06-27T03:50:31.274Z,102120.40
2018-06-27T03:53:38.701Z,102119.56
2018-06-27T03:56:44.671Z,102128.98
2018-06-27T03:59:50.759Z,102127.53
2018-06-27T04:02:55.849Z,102126.56
2018-06-27T04:06:01.833Z,102130.95
2018-06-27T04:09:09.739Z,102132.96
2018-06-27T04:12:14.800Z,102118.69
2018-06-27T04:15:20.656Z,102120.38
2018-06-27T04:18:26.705Z,102122.83
2018-06-27T04:21:31.494Z,102130.34
2018-06-27T04:24:37.216Z,102130.53
2018-06-27T04:27:42.269Z,102136.51
2018-06-27T04:30:47.423Z,102135.47
2018-06-27T04:33:52.516Z,102131.47
2018-06-27T04:36:58.123Z,102133.53
2018-06-27T04:40:04.563Z,102141.18
2018-06-27T04:43:10.304Z,102138.47
2018-06-27T04:46:16.556Z,102138.33
2018-06-27T04:49:21.631Z,102146.44
2018-06-27T04:52:27.492Z,102141.52
2018-06-27T04:55:33.598Z,102148.69
2018-06-27T04:58:39.196Z,102152.43
2018-06-27T05:01:45.081Z,102155.33
2018-06-27T05:04:51.353Z,102149.12
2018-06-27T05:07:57.204Z,102146.40
2018-06-27T05:11:03.570Z,102142.80
2018-06-27T05:14:09.400Z,102147.84
2018-06-27T05:17:15.191Z,102144.66
2018-06-27T05:20:21.062Z,102149.66
2018-06-27T05:23:26.174Z,102158.12
2018-06-27T05:26:31.268Z,102151.93
2018-06-27T05:29:36.296Z,102147.84
2018-06-27T05:32:41.606Z,102152.81
2018-06-27T05:35:46.983Z,102156.97
2018-06-27T05:38:52.825Z,102157.66
2018-06-27T05:41:57.912Z,102153.25
2018-06-27T05:45:03.025Z,102159.09
2018-06-27T05:48:07.861Z,102159.33
2018-06-27T05:51:12.680Z,102162.16
2018-06-27T05:54:18.400Z,102167.99
2018-06-27T05:57:24.660Z,102172.50
2018-06-27T06:00:30.572Z,102176.66
2018-06-27T06:03:36.257Z,102177.28
2018-06-27T06:06:41.650Z,102181.36
2018-06-27T06:09:47.356Z,102185.41
2018-06-27T06:12:52.438Z,102175.33
2018-06-27T06:15:57.664Z,102177.16
2018-06-27T06:19:02.744Z,102172.10
2018-06-27T06:22:08.293Z,102173.97
2018-06-27T06:25:14.380Z,102172.80
2018-06-27T06:28:20.020Z,102175.50
2018-06-27T06:31:25.789Z,102174.28
2018-06-27T06:34:30.876Z,102178.28
2018-06-27T06:37:36.437Z,102184.02
2018-06-27T06:40:42.759Z,102183.27
2018-06-27T06:43:47.744Z,102179.48
2018-06-27T06:46:53.546Z,102190.38
2018-06-27T06:49:59.451Z,102186.97
2018-06-27T06:53:05.419Z,102189.66
2018-06-27T06:56:11.371Z,102197.91
2018-06-27T06:59:16.563Z,102200.19
2018-06-27T07:02:22.268Z,102198.61
2018-06-27T07:05:28.440Z,102199.58
2018-06-27T07:08:34.269Z,102203.64
2018-06-27T07:11:40.408Z,102206.33
2018-06-27T07:14:46.440Z,102205.11
2018-06-27T07:17:51.870Z,102208.63
2018-06-27T07:20:58.037Z,102214.25
2018-06-27T07:24:04.805Z,102211.36
2018-06-27T07:27:10.190Z,102211.81
2018-06-27T07:30:15.292Z,102212.78
2018-06-27T07:33:20.537Z,102213.69
2018-06-27T07:36:25.640Z,102212.47
2018-06-27T07:39:31.966Z,102217.61
2018-06-27T07:42:37.810Z,102215.46
2018-06-27T07:45:43.726Z,102216.27
2018-06-27T07:48:49.125Z,102218.48
2018-06-27T07:51:55.484Z,102222.44
2018-06-27T07:55:01.180Z,102216.37
2018-06-27T07:58:07.228Z,102219.02
2018-06-27T08:01:12.324Z,102219.51
2018-06-27T08:04:17.728Z,102221.23
2018-06-27T08:07:23.849Z,102223.05
2018-06-27T08:10:29.845Z,102220.84
2018-06-27T08:13:34.935Z,102226.08
2018-06-27T08:16:40.037Z,102225.72
2018-06-27T08:19:46.031Z,102218.89
2018-06-27T08:22:51.463Z,102217.63
2018-06-27T08:25:56.551Z,102222.00
2018-06-27T08:29:01.857Z,102216.55
2018-06-27T08:32:07.860Z,102222.78
2018-06-27T08:35:12.937Z,102227.21
2018-06-27T08:38:18.094Z,102223.03
2018-06-27T08:41:24.287Z,102220.15
2018-06-27T08:44:30.304Z,102212.73
2018-06-27T08:47:36.325Z,102209.87
2018-06-27T08:50:42.109Z,102210.24
2018-06-27T08:53:47.856Z,102208.59
2018-06-27T08:56:53.144Z,102203.30
2018-06-27T08:59:58.570Z,102211.47
2018-06-27T09:03:04.448Z,102210.65
2018-06-27T09:06:09.571Z,102209.73
2018-06-27T09:09:15.906Z,102206.09
2018-06-27T09:12:21.592Z,102216.40
2018-06-27T09:15:26.646Z,102209.45
2018-06-27T09:18:31.866Z,102205.08
2018-06-27T09:21:37.504Z,102206.91
2018-06-27T09:24:42.556Z,102207.34
2018-06-27T09:27:47.805Z,102205.34
2018-06-27T09:30:53.632Z,102195.90
2018-06-27T09:33:58.731Z,102202.20
2018-06-27T09:37:04.237Z,102202.44
2018-06-27T09:40:09.372Z,102203.17
2018-06-27T09:43:14.465Z,102199.50
2018-06-27T09:46:19.368Z,102203.53
2018-06-27T09:49:24.148Z,102205.69
2018-06-27T09:52:29.538Z,102202.25
2018-06-27T09:55:34.959Z,102204.02
2018-06-27T09:58:40.043Z,102196.06
2018-06-27T10:01:46.671Z,102203.27
2018-06-27T10:04:52.684Z,102211.29
2018-06-27T10:07:58.513Z,102204.98
2018-06-27T10:11:04.844Z,102201.30
2018-06-27T10:14:10.632Z,102192.28
2018-06-27T10:17:16.509Z,102190.85
2018-06-27T10:20:21.784Z,102189.06
2018-06-27T10:23:27.456Z,102189.73
2018-06-27T10:26:32.588Z,102191.88
2018-06-27T10:29:38.529Z,102194.17
2018-06-27T10:32:43.621Z,102190.38
2018-06-27T10:35:48.746Z,102187.72
2018-06-27T10:38:55.089Z,102183.67
2018-06-27T10:42:00.804Z,102181.45
2018-06-27T10:45:06.115Z,102180.88
2018-06-27T10:48:11.874Z,102176.86
2018-06-27T10:51:17.248Z,102172.82
2018-06-27T10:54:23.233Z,102181.89
2018-06-27T10:57:29.773Z,102182.28
2018-06-27T11:00:34.871Z,102181.20
2018-06-27T11:03:40.563Z,102180.28
2018-06-27T11:06:46.601Z,102168.52
2018-06-27T11:09:52.701Z,102169.23
2018-06-27T11:12:58.720Z,102163.86
2018-06-27T11:16:03.832Z,102168.08
2018-06-27T11:19:09.624Z,102159.88
2018-06-27T11:22:15.196Z,102163.09
2018-06-27T11:25:21.146Z,102168.44
2018-06-27T11:28:27.216Z,102166.77
2018-06-27T11:31:33.263Z,102162.50
2018-06-27T11:34:38.828Z,102158.30
2018-06-27T11:37:43.940Z,102162.86
2018-06-27T11:40:49.024Z,102151.06
2018-06-27T11:43:54.443Z,102154.04
2018-06-27T11:47:00.464Z,102149.51
2018-06-27T11:50:05.567Z,102149.03
2018-06-27T11:53:10.668Z,102146.87
2018-06-27T11:56:15.744Z,102148.44
2018-06-27T11:59:21.232Z,102152.09
2018-06-27T12:02:26.340Z,102149.25
2018-06-27T12:05:31.628Z,102142.70
2018-06-27T12:08:36.721Z,102140.66
2018-06-27T12:11:42.049Z,102142.07
2018-06-27T12:14:47.479Z,102135.17
2018-06-27T12:17:53.256Z,102143.62
2018-06-27T12:20:59.216Z,102140.27
2018-06-27T12:24:05.192Z,102130.51
2018-06-27T12:27:10.228Z,102139.40
2018-06-27T12:30:23.756Z,102131.62
2018-06-27T12:33:29.156Z,102131.62
2018-06-27T12:36:34.460Z,102134.23
2018-06-27T12:39:41.020Z,102126.33
2018-06-27T12:42:46.942Z,102120.23
2018-06-27T12:45:52.763Z,102120.89
2018-06-27T12:48:58.586Z,102120.53
2018-06-27T12:52:03.781Z,102125.52
2018-06-27T12:55:11.261Z,102120.39
2018-06-27T12:58:17.227Z,102114.05
2018-06-27T13:01:23.129Z,102113.64
2018-06-27T13:04:28.428Z,102116.02
2018-06-27T13:07:33.779Z,102109.41
2018-06-27T13:10:38.857Z,102107.86
2018-06-27T13:13:43.964Z,102114.23
2018-06-27T13:16:48.732Z,102120.70
2018-06-27T13:19:54.330Z,102118.42
2018-06-27T13:23:00.625Z,102110.05
2018-06-27T13:26:06.446Z,102109.30
2018-06-27T13:29:11.977Z,102112.63
2018-06-27T13:32:18.015Z,102112.25
2018-06-27T13:35:24.248Z,102107.69
2018-06-27T13:38:30.085Z,102105.14
2018-06-27T13:41:35.979Z,102100.45
2018-06-27T13:44:41.063Z,102102.08
2018-06-27T13:47:46.188Z,102098.21
2018-06-27T13:50:51.832Z,102100.33
2018-06-27T13:53:58.356Z,102095.41
2018-06-27T13:57:03.760Z,102101.09
2018-06-27T14:00:08.824Z,102098.70
2018-06-27T14:03:15.309Z,102103.20
2018-06-27T14:06:20.448Z,102102.26
2018-06-27T14:09:25.942Z,102092.78
2018-06-27T14:12:32.001Z,102095.03
2018-06-27T14:15:37.112Z,102096.20
2018-06-27T14:18:43.108Z,102090.60
2018-06-27T14:21:49.250Z,102092.88
2018-06-27T14:24:54.319Z,102094.06
2018-06-27T14:27:59.493Z,102089.42
2018-06-27T14:31:04.926Z,102096.83
2018-06-27T14:34:10.636Z,102091.29
2018-06-27T14:37:16.080Z,102084.92
2018-06-27T14:40:21.158Z,102081.56
2018-06-27T14:43:26.976Z,102080.80
2018-06-27T14:46:32.110Z,102087.44
2018-06-27T14:49:38.212Z,102081.55
2018-06-27T14:52:45.280Z,102079.41
2018-06-27T14:55:50.790Z,102075.74
2018-06-27T14:58:56.497Z,102080.11
2018-06-27T15:02:02.018Z,102074.51
2018-06-27T15:05:06.811Z,102074.75
2018-06-27T15:08:12.503Z,102068.31
2018-06-27T15:11:19.636Z,102065.89
2018-06-27T15:14:25.956Z,102065.06
2018-06-27T15:17:31.034Z,102064.23
2018-06-27T15:20:36.588Z,102069.39
2018-06-27T15:23:43.095Z,102069.59
2018-06-27T15:26:49.076Z,102065.06
2018-06-27T15:29:55.312Z,102065.34
2018-06-27T15:33:02.482Z,102064.17
2018-06-27T15:36:07.888Z,102058.64
2018-06-27T15:39:12.965Z,102057.66
2018-06-27T15:42:17.756Z,102061.06
2018-06-27T15:45:24.103Z,102061.06
2018-06-27T15:48:29.302Z,102051.79
2018-06-27T15:51:35.372Z,102046.67
2018-06-27T15:54:41.174Z,102043.32
2018-06-27T15:57:48.794Z,102036.66
2018-06-27T16:00:54.822Z,102045.64
2018-06-27T16:04:00.892Z,102041.02
2018-06-27T16:07:07.038Z,102042.58
2018-06-27T16:10:12.104Z,102044.86
2018-06-27T16:13:17.164Z,102040.50
2018-06-27T16:16:22.047Z,102046.00
2018-06-27T16:19:27.100Z,102044.20
2018-06-27T16:22:32.178Z,102053.30
2018-06-27T16:25:38.164Z,102054.67
2018-06-27T16:28:43.958Z,102054.01
2018-06-27T16:31:49.025Z,102056.91
2018-06-27T16:34:54.173Z,102048.58
2018-06-27T16:38:00.268Z,102056.23
2018-06-27T16:41:06.098Z,102053.33
2018-06-27T16:44:12.796Z,102050.86
2018-06-27T16:47:18.064Z,102046.91
2018-06-27T16:50:22.893Z,102052.22
2018-06-27T16:53:28.285Z,102050.44
2018-06-27T16:56:34.593Z,102052.64
2018-06-27T16:59:39.646Z,102054.58
2018-06-27T17:02:45.061Z,102061.19
2018-06-27T17:05:50.170Z,102059.28
2018-06-27T17:08:55.781Z,102060.66
2018-06-27T17:12:00.540Z,102054.88
2018-06-27T17:15:13.951Z,102061.80
2018-06-27T17:18:21.763Z,102054.19
2018-06-27T17:21:26.940Z,102056.13
2018-06-27T17:24:33.111Z,102056.25
2018-06-27T17:27:38.858Z,102060.22
2018-06-27T17:30:45.238Z,102057.16
2018-06-27T17:33:50.720Z,102055.27
2018-06-27T17:36:55.986Z,102064.69
2018-06-27T17:40:00.982Z,102066.95
2018-06-27T17:43:06.634Z,102063.03
2018-06-27T17:46:12.026Z,102061.22
2018-06-27T17:49:17.149Z,102063.50
2018-06-27T17:52:21.987Z,102061.95
2018-06-27T17:55:28.792Z,102070.39
2018-06-27T17:58:34.404Z,102062.91
2018-06-27T18:01:40.113Z,102067.77
2018-06-27T18:04:46.590Z,102062.66
2018-06-27T18:07:52.732Z,102061.09
2018-06-27T18:10:57.909Z,102059.80
2018-06-27T18:14:04.528Z,102059.30
2018-06-27T18:17:09.666Z,102054.63
2018-06-27T18:20:17.021Z,102059.92
2018-06-27T18:23:22.705Z,102062.66
2018-06-27T18:26:27.811Z,102065.36
2018-06-27T18:29:33.896Z,102063.66
2018-06-27T18:32:39.017Z,102065.08
2018-06-27T18:35:45.437Z,102060.76
2018-06-27T18:38:52.349Z,102065.15
2018-06-27T18:41:59.438Z,102065.70
2018-06-27T18:45:05.856Z,102062.56
2018-06-27T18:48:11.307Z,102056.85
2018-06-27T18:51:17.471Z,102070.82
2018-06-27T18:54:23.698Z,102073.30
2018-06-27T18:57:28.804Z,102078.13
2018-06-27T19:00:34.350Z,102076.77
2018-06-27T19:03:39.451Z,102075.88
2018-06-27T19:06:44.561Z,102077.64
2018-06-27T19:09:50.522Z,102075.92
2018-06-27T19:12:56.697Z,102083.84
2018-06-27T19:16:03.692Z,102083.42
2018-06-27T19:19:09.916Z,102089.80
2018-06-27T19:22:15.689Z,102087.72
2018-06-27T19:25:20.758Z,102086.81
2018-06-27T19:28:26.836Z,102093.31
2018-06-27T19:31:31.676Z,102086.83
2018-06-27T19:34:37.809Z,102089.52
2018-06-27T19:37:43.546Z,102091.33
2018-06-27T19:40:49.252Z,102097.48
2018-06-27T19:43:54.896Z,102095.20
2018-06-27T19:47:01.463Z,102097.00
2018-06-27T19:50:06.964Z,102100.87
2018-06-27T19:53:12.197Z,102102.10
2018-06-27T19:56:17.971Z,102104.73
2018-06-27T19:59:23.744Z,102103.59
2018-06-27T20:02:29.284Z,102101.84
2018-06-27T20:05:35.660Z,102103.73
2018-06-27T20:08:41.828Z,102100.97
2018-06-27T20:11:47.628Z,102101.45
2018-06-27T20:14:52.705Z,102110.98
2018-06-27T20:18:19.945Z,102107.45
2018-06-27T20:21:36.875Z,102107.42
2018-06-27T20:24:41.884Z,102106.05
2018-06-27T20:27:47.932Z,102107.83
2018-06-27T20:30:53.005Z,102112.88
2018-06-27T20:33:58.076Z,102107.86
2018-06-27T20:37:03.526Z,102105.52
2018-06-27T20:40:10.179Z,102113.07
2018-06-27T20:43:15.692Z,102112.73
2018-06-27T20:46:22.837Z,102115.33
2018-06-27T20:49:28.737Z,102111.61
2018-06-27T20:52:34.784Z,102115.50
2018-06-27T20:55:41.173Z,102116.27
2018-06-27T20:58:46.216Z,102120.33
2018-06-27T21:01:51.037Z,102116.91
2018-06-27T21:04:56.642Z,102113.92
2018-06-27T21:08:01.779Z,102115.81
2018-06-27T21:11:07.045Z,102115.17
2018-06-27T21:14:12.109Z,102121.93
2018-06-27T21:17:20.250Z,102130.11
2018-06-27T21:20:26.161Z,102129.80
2018-06-27T21:23:31.777Z,102129.80
2018-06-27T21:26:36.863Z,102126.24
2018-06-27T21:29:42.405Z,102135.16
2018-06-27T21:32:48.495Z,102132.89
2018-06-27T21:35:54.026Z,102136.23
2018-06-27T21:38:59.896Z,102132.05
2018-06-27T21:42:06.023Z,102135.36
2018-06-27T21:45:11.088Z,102137.08
2018-06-27T21:48:16.781Z,102140.23
2018-06-27T21:51:22.712Z,102138.45
2018-06-27T21:54:28.703Z,102144.73
2018-06-27T21:57:33.476Z,102146.66
2018-06-27T22:00:39.805Z,102153.43
2018-06-27T22:03:44.641Z,102155.02
2018-06-27T22:06:50.445Z,102156.95
2018-06-27T22:09:55.481Z,102156.73
2018-06-27T22:13:01.813Z,102160.97
2018-06-27T22:16:07.681Z,102156.93
2018-06-27T22:19:13.043Z,102150.61
2018-06-27T22:22:19.041Z,102160.48
2018-06-27T22:25:26.047Z,102168.06
2018-06-27T22:28:31.104Z,102164.94
2018-06-27T22:31:37.268Z,102167.25
2018-06-27T22:34:43.088Z,102158.87
2018-06-27T22:37:48.153Z,102161.23
2018-06-27T22:40:53.459Z,102157.59
2018-06-27T22:43:58.697Z,102163.09
2018-06-27T22:47:05.799Z,102164.17
2018-06-27T22:50:11.209Z,102165.27
2018-06-27T22:53:16.986Z,102163.35
2018-06-27T22:56:22.308Z,102160.55
2018-06-27T22:59:28.115Z,102165.44
2018-06-27T23:02:33.168Z,102166.11
2018-06-27T23:08:43.052Z,102168.63
2018-06-27T23:11:48.145Z,102167.20
2018-06-27T23:14:53.937Z,102163.11
2018-06-27T23:17:59.027Z,102164.73
2018-06-27T23:21:04.864Z,102166.39
2018-06-27T23:24:10.876Z,102161.37
2018-06-27T23:27:16.836Z,102156.84
2018-06-27T23:30:23.081Z,102159.77
2018-06-27T23:33:29.004Z,102155.70
2018-06-27T23:36:34.101Z,102160.20
2018-06-27T23:39:40.105Z,102154.42
2018-06-27T23:42:45.403Z,102160.11
2018-06-27T23:45:50.796Z,102157.52
2018-06-27T23:48:56.526Z,102148.28
2018-06-27T23:52:01.652Z,102155.83
2018-06-27T23:55:06.757Z,102158.16
2018-06-27T23:58:12.354Z,102156.18
